sensor_id;sensor_type;location;lat;lon;timestamp;P1;P2;P0
55043;PMS5003;54902;50.420;18.854;2022-10-17T00:00:08;20;19;12
55043;PMS5003;54902;50.420;18.854;2022-10-17T00:00:40;20;19;12
55043;PMS5003;54902;50.420;18.854;2022-10-17T00:01:11;20;19;12
55043;PMS5003;54902;50.420;18.854;2022-10-17T00:01:43;20;19;12
55043;PMS5003;54902;50.420;18.854;2022-10-17T00:02:14;20;19;12
55043;PMS5003;54902;50.420;18.854;2022-10-17T00:02:44;27;25;16
55043;PMS5003;54902;50.420;18.854;2022-10-17T00:03:15;27;25;16
55043;PMS5003;54902;50.420;18.854;2022-10-17T00:03:47;27;25;16
55043;PMS5003;54902;50.420;18.854;2022-10-17T00:04:18;27;25;16
55043;PMS5003;54902;50.420;18.854;2022-10-17T00:04:48;28;26;18
55043;PMS5003;54902;50.420;18.854;2022-10-17T00:05:20;28;26;18
55043;PMS5003;54902;50.420;18.854;2022-10-17T00:05:51;28;26;18
55043;PMS5003;54902;50.420;18.854;2022-10-17T00:06:22;28;26;18
55043;PMS5003;54902;50.420;18.854;2022-10-17T00:06:53;28;26;18
55043;PMS5003;54902;50.420;18.854;2022-10-17T00:07:24;28;26;18
55043;PMS5003;54902;50.420;18.854;2022-10-17T00:07:55;46;43;28
55043;PMS5003;54902;50.420;18.854;2022-10-17T00:08:26;46;43;28
55043;PMS5003;54902;50.420;18.854;2022-10-17T00:08:57;46;43;28
55043;PMS5003;54902;50.420;18.854;2022-10-17T00:09:27;46;43;28
55043;PMS5003;54902;50.420;18.854;2022-10-17T00:09:58;46;43;28
55043;PMS5003;54902;50.420;18.854;2022-10-17T00:10:29;46;43;28
55043;PMS5003;54902;50.420;18.854;2022-10-17T00:11:02;46;43;28
55043;PMS5003;54902;50.420;18.854;2022-10-17T00:11:35;46;43;28
55043;PMS5003;54902;50.420;18.854;2022-10-17T00:12:06;46;43;28
55043;PMS5003;54902;50.420;18.854;2022-10-17T00:12:36;46;43;28
55043;PMS5003;54902;50.420;18.854;2022-10-17T00:13:07;51;48;31
55043;PMS5003;54902;50.420;18.854;2022-10-17T00:13:39;51;48;31
55043;PMS5003;54902;50.420;18.854;2022-10-17T00:14:10;51;48;31
55043;PMS5003;54902;50.420;18.854;2022-10-17T00:14:41;51;48;31
55043;PMS5003;54902;50.420;18.854;2022-10-17T00:15:16;51;48;31
55043;PMS5003;54902;50.420;18.854;2022-10-17T00:15:48;51;48;31
55043;PMS5003;54902;50.420;18.854;2022-10-17T00:16:22;51;48;31
55043;PMS5003;54902;50.420;18.854;2022-10-17T00:16:56;51;48;31
55043;PMS5003;54902;50.420;18.854;2022-10-17T00:17:26;51;48;31
55043;PMS5003;54902;50.420;18.854;2022-10-17T00:17:57;51;48;31
55043;PMS5003;54902;50.420;18.854;2022-10-17T00:18:29;51;48;31
55043;PMS5003;54902;50.420;18.854;2022-10-17T00:19:00;51;48;31
55043;PMS5003;54902;50.420;18.854;2022-10-17T00:19:31;51;48;31
55043;PMS5003;54902;50.420;18.854;2022-10-17T00:20:02;51;48;31
55043;PMS5003;54902;50.420;18.854;2022-10-17T00:20:36;36;35;23
55043;PMS5003;54902;50.420;18.854;2022-10-17T00:21:13;36;35;23
55043;PMS5003;54902;50.420;18.854;2022-10-17T00:21:49;36;35;23
55043;PMS5003;54902;50.420;18.854;2022-10-17T00:22:20;36;35;23
55043;PMS5003;54902;50.420;18.854;2022-10-17T00:22:51;36;35;23
55043;PMS5003;54902;50.420;18.854;2022-10-17T00:23:22;36;35;23
55043;PMS5003;54902;50.420;18.854;2022-10-17T00:23:53;38;38;24
55043;PMS5003;54902;50.420;18.854;2022-10-17T00:24:24;38;38;24
55043;PMS5003;54902;50.420;18.854;2022-10-17T00:24:55;38;38;24
55043;PMS5003;54902;50.420;18.854;2022-10-17T00:25:26;38;38;24
55043;PMS5003;54902;50.420;18.854;2022-10-17T00:26:00;38;38;24
55043;PMS5003;54902;50.420;18.854;2022-10-17T00:26:33;38;38;24
55043;PMS5003;54902;50.420;18.854;2022-10-17T00:27:04;38;38;24
55043;PMS5003;54902;50.420;18.854;2022-10-17T00:27:39;38;38;24
55043;PMS5003;54902;50.420;18.854;2022-10-17T00:28:11;38;38;24
55043;PMS5003;54902;50.420;18.854;2022-10-17T00:28:46;38;38;24
55043;PMS5003;54902;50.420;18.854;2022-10-17T00:29:18;42;42;27
55043;PMS5003;54902;50.420;18.854;2022-10-17T00:29:49;33;30;19
55043;PMS5003;54902;50.420;18.854;2022-10-17T00:30:21;33;30;19
55043;PMS5003;54902;50.420;18.854;2022-10-17T00:30:56;33;30;19
55043;PMS5003;54902;50.420;18.854;2022-10-17T00:31:27;33;30;19
55043;PMS5003;54902;50.420;18.854;2022-10-17T00:31:58;33;30;19
55043;PMS5003;54902;50.420;18.854;2022-10-17T00:32:29;33;30;19
55043;PMS5003;54902;50.420;18.854;2022-10-17T00:33:00;33;30;19
55043;PMS5003;54902;50.420;18.854;2022-10-17T00:33:32;45;40;24
55043;PMS5003;54902;50.420;18.854;2022-10-17T00:34:04;45;40;24
55043;PMS5003;54902;50.420;18.854;2022-10-17T00:34:35;32;29;20
55043;PMS5003;54902;50.420;18.854;2022-10-17T00:35:06;32;29;20
55043;PMS5003;54902;50.420;18.854;2022-10-17T00:35:38;32;29;20
55043;PMS5003;54902;50.420;18.854;2022-10-17T00:36:16;32;29;20
55043;PMS5003;54902;50.420;18.854;2022-10-17T00:36:49;32;29;20
55043;PMS5003;54902;50.420;18.854;2022-10-17T00:37:19;32;29;20
55043;PMS5003;54902;50.420;18.854;2022-10-17T00:37:50;32;29;20
55043;PMS5003;54902;50.420;18.854;2022-10-17T00:38:21;32;29;20
55043;PMS5003;54902;50.420;18.854;2022-10-17T00:38:53;32;29;20
55043;PMS5003;54902;50.420;18.854;2022-10-17T00:39:26;32;29;20
55043;PMS5003;54902;50.420;18.854;2022-10-17T00:39:57;43;40;27
55043;PMS5003;54902;50.420;18.854;2022-10-17T00:40:28;43;40;27
55043;PMS5003;54902;50.420;18.854;2022-10-17T00:40:59;29;28;20
55043;PMS5003;54902;50.420;18.854;2022-10-17T00:41:32;29;28;20
55043;PMS5003;54902;50.420;18.854;2022-10-17T00:42:03;29;28;20
55043;PMS5003;54902;50.420;18.854;2022-10-17T00:42:34;29;28;20
55043;PMS5003;54902;50.420;18.854;2022-10-17T00:43:10;29;28;20
55043;PMS5003;54902;50.420;18.854;2022-10-17T00:45:14;29;28;20
55043;PMS5003;54902;50.420;18.854;2022-10-17T00:45:52;37;35;24
55043;PMS5003;54902;50.420;18.854;2022-10-17T00:46:24;37;35;24
55043;PMS5003;54902;50.420;18.854;2022-10-17T00:46:58;37;35;24
55043;PMS5003;54902;50.420;18.854;2022-10-17T00:47:34;37;35;24
55043;PMS5003;54902;50.420;18.854;2022-10-17T00:48:06;37;35;24
55043;PMS5003;54902;50.420;18.854;2022-10-17T00:48:41;37;35;24
55043;PMS5003;54902;50.420;18.854;2022-10-17T00:49:12;37;35;24
55043;PMS5003;54902;50.420;18.854;2022-10-17T00:49:43;37;35;24
55043;PMS5003;54902;50.420;18.854;2022-10-17T00:50:15;37;35;24
55043;PMS5003;54902;50.420;18.854;2022-10-17T00:50:47;37;35;24
55043;PMS5003;54902;50.420;18.854;2022-10-17T00:51:21;39;37;25
55043;PMS5003;54902;50.420;18.854;2022-10-17T00:51:59;39;37;25
55043;PMS5003;54902;50.420;18.854;2022-10-17T00:52:34;39;37;25
55043;PMS5003;54902;50.420;18.854;2022-10-17T00:53:05;39;37;25
55043;PMS5003;54902;50.420;18.854;2022-10-17T00:53:38;39;37;25
55043;PMS5003;54902;50.420;18.854;2022-10-17T00:54:10;39;37;25
55043;PMS5003;54902;50.420;18.854;2022-10-17T00:54:44;39;37;25
55043;PMS5003;54902;50.420;18.854;2022-10-17T00:55:20;39;37;25
55043;PMS5003;54902;50.420;18.854;2022-10-17T00:56:00;39;37;25
55043;PMS5003;54902;50.420;18.854;2022-10-17T00:56:31;39;37;25
55043;PMS5003;54902;50.420;18.854;2022-10-17T00:57:04;39;37;25
55043;PMS5003;54902;50.420;18.854;2022-10-17T00:57:35;39;37;25
55043;PMS5003;54902;50.420;18.854;2022-10-17T00:58:08;39;37;25
55043;PMS5003;54902;50.420;18.854;2022-10-17T00:58:39;39;37;25
55043;PMS5003;54902;50.420;18.854;2022-10-17T00:59:10;39;37;25
55043;PMS5003;54902;50.420;18.854;2022-10-17T00:59:43;39;37;25
55043;PMS5003;54902;50.420;18.854;2022-10-17T01:00:20;39;37;25
55043;PMS5003;54902;50.420;18.854;2022-10-17T01:00:51;39;37;25
55043;PMS5003;54902;50.420;18.854;2022-10-17T01:01:22;39;37;25
55043;PMS5003;54902;50.420;18.854;2022-10-17T01:02:03;39;37;25
55043;PMS5003;54902;50.420;18.854;2022-10-17T01:02:32;39;37;25
55043;PMS5003;54902;50.420;18.854;2022-10-17T01:03:03;39;37;25
55043;PMS5003;54902;50.420;18.854;2022-10-17T01:03:34;39;37;25
55043;PMS5003;54902;50.420;18.854;2022-10-17T01:04:05;39;37;25
55043;PMS5003;54902;50.420;18.854;2022-10-17T01:04:36;39;37;25
55043;PMS5003;54902;50.420;18.854;2022-10-17T01:05:10;39;37;25
55043;PMS5003;54902;50.420;18.854;2022-10-17T01:05:42;39;37;25
55043;PMS5003;54902;50.420;18.854;2022-10-17T01:06:13;39;37;25
55043;PMS5003;54902;50.420;18.854;2022-10-17T01:06:44;39;37;25
55043;PMS5003;54902;50.420;18.854;2022-10-17T01:07:15;39;37;25
55043;PMS5003;54902;50.420;18.854;2022-10-17T01:07:48;39;37;25
55043;PMS5003;54902;50.420;18.854;2022-10-17T01:08:22;39;37;25
55043;PMS5003;54902;50.420;18.854;2022-10-17T01:08:53;39;37;25
55043;PMS5003;54902;50.420;18.854;2022-10-17T01:09:24;39;37;25
55043;PMS5003;54902;50.420;18.854;2022-10-17T01:09:56;39;37;25
55043;PMS5003;54902;50.420;18.854;2022-10-17T01:10:33;39;37;25
55043;PMS5003;54902;50.420;18.854;2022-10-17T01:12:03;39;37;25
55043;PMS5003;54902;50.420;18.854;2022-10-17T01:14:58;26;26;15
55043;PMS5003;54902;50.420;18.854;2022-10-17T01:15:36;26;26;15
55043;PMS5003;54902;50.420;18.854;2022-10-17T01:16:17;26;26;15
55043;PMS5003;54902;50.420;18.854;2022-10-17T01:17:00;26;26;15
55043;PMS5003;54902;50.420;18.854;2022-10-17T01:17:44;26;26;15
55043;PMS5003;54902;50.420;18.854;2022-10-17T01:19:03;26;26;15
55043;PMS5003;54902;50.420;18.854;2022-10-17T01:20:28;26;26;15
55043;PMS5003;54902;50.420;18.854;2022-10-17T01:22:33;37;37;22
55043;PMS5003;54902;50.420;18.854;2022-10-17T01:23:18;37;37;22
55043;PMS5003;54902;50.420;18.854;2022-10-17T01:25:28;37;37;22
55043;PMS5003;54902;50.420;18.854;2022-10-17T01:26:56;37;37;22
55043;PMS5003;54902;50.420;18.854;2022-10-17T01:31:51;37;37;22
55043;PMS5003;54902;50.420;18.854;2022-10-17T01:32:34;37;37;22
55043;PMS5003;54902;50.420;18.854;2022-10-17T01:33:13;37;37;22
55043;PMS5003;54902;50.420;18.854;2022-10-17T01:34:32;37;37;22
55043;PMS5003;54902;50.420;18.854;2022-10-17T01:36:43;37;37;22
55043;PMS5003;54902;50.420;18.854;2022-10-17T01:38:06;37;37;22
55043;PMS5003;54902;50.420;18.854;2022-10-17T01:39:28;37;37;22
55043;PMS5003;54902;50.420;18.854;2022-10-17T01:40:10;37;37;22
55043;PMS5003;54902;50.420;18.854;2022-10-17T01:41:35;37;37;22
55043;PMS5003;54902;50.420;18.854;2022-10-17T01:43:02;37;37;22
55043;PMS5003;54902;50.420;18.854;2022-10-17T01:43:46;37;37;22
55043;PMS5003;54902;50.420;18.854;2022-10-17T01:44:43;37;37;22
55043;PMS5003;54902;50.420;18.854;2022-10-17T01:45:57;37;37;22
55043;PMS5003;54902;50.420;18.854;2022-10-17T01:46:36;33;33;20
55043;PMS5003;54902;50.420;18.854;2022-10-17T01:47:12;33;33;20
55043;PMS5003;54902;50.420;18.854;2022-10-17T01:47:49;33;33;20
55043;PMS5003;54902;50.420;18.854;2022-10-17T01:48:24;33;33;20
55043;PMS5003;54902;50.420;18.854;2022-10-17T01:49:03;39;37;24
55043;PMS5003;54902;50.420;18.854;2022-10-17T01:49:36;39;37;24
55043;PMS5003;54902;50.420;18.854;2022-10-17T01:50:11;39;37;24
55043;PMS5003;54902;50.420;18.854;2022-10-17T01:50:57;39;37;24
55043;PMS5003;54902;50.420;18.854;2022-10-17T01:51:48;39;37;24
55043;PMS5003;54902;50.420;18.854;2022-10-17T01:52:18;39;37;24
55043;PMS5003;54902;50.420;18.854;2022-10-17T01:52:55;39;37;24
55043;PMS5003;54902;50.420;18.854;2022-10-17T01:53:34;39;37;24
55043;PMS5003;54902;50.420;18.854;2022-10-17T01:55:36;46;44;28
55043;PMS5003;54902;50.420;18.854;2022-10-17T01:56:10;46;44;28
55043;PMS5003;54902;50.420;18.854;2022-10-17T01:56:45;46;44;28
55043;PMS5003;54902;50.420;18.854;2022-10-17T01:58:03;46;44;28
55043;PMS5003;54902;50.420;18.854;2022-10-17T01:58:46;46;44;28
55043;PMS5003;54902;50.420;18.854;2022-10-17T01:59:23;46;44;28
55043;PMS5003;54902;50.420;18.854;2022-10-17T01:59:58;46;44;28
55043;PMS5003;54902;50.420;18.854;2022-10-17T02:00:31;46;44;28
55043;PMS5003;54902;50.420;18.854;2022-10-17T02:01:07;46;44;28
55043;PMS5003;54902;50.420;18.854;2022-10-17T02:01:42;46;44;28
55043;PMS5003;54902;50.420;18.854;2022-10-17T02:02:15;46;44;28
55043;PMS5003;54902;50.420;18.854;2022-10-17T02:02:48;46;44;28
55043;PMS5003;54902;50.420;18.854;2022-10-17T02:03:24;46;44;28
55043;PMS5003;54902;50.420;18.854;2022-10-17T02:03:58;46;44;28
55043;PMS5003;54902;50.420;18.854;2022-10-17T02:04:32;46;44;28
55043;PMS5003;54902;50.420;18.854;2022-10-17T02:05:04;46;44;28
55043;PMS5003;54902;50.420;18.854;2022-10-17T02:05:39;46;44;28
55043;PMS5003;54902;50.420;18.854;2022-10-17T02:06:12;46;44;28
55043;PMS5003;54902;50.420;18.854;2022-10-17T02:06:43;46;44;28
55043;PMS5003;54902;50.420;18.854;2022-10-17T02:07:14;46;44;28
55043;PMS5003;54902;50.420;18.854;2022-10-17T02:07:45;46;44;28
55043;PMS5003;54902;50.420;18.854;2022-10-17T02:08:57;46;44;28
55043;PMS5003;54902;50.420;18.854;2022-10-17T02:09:28;29;28;18
55043;PMS5003;54902;50.420;18.854;2022-10-17T02:09:59;29;28;18
55043;PMS5003;54902;50.420;18.854;2022-10-17T02:10:32;29;28;18
55043;PMS5003;54902;50.420;18.854;2022-10-17T02:11:18;29;28;18
55043;PMS5003;54902;50.420;18.854;2022-10-17T02:14:42;22;22;13
55043;PMS5003;54902;50.420;18.854;2022-10-17T02:16:51;22;22;13
55043;PMS5003;54902;50.420;18.854;2022-10-17T02:18:19;22;22;13
55043;PMS5003;54902;50.420;18.854;2022-10-17T02:19:01;22;22;13
55043;PMS5003;54902;50.420;18.854;2022-10-17T02:21:06;34;32;20
55043;PMS5003;54902;50.420;18.854;2022-10-17T02:21:45;34;32;20
55043;PMS5003;54902;50.420;18.854;2022-10-17T02:23:59;34;32;20
55043;PMS5003;54902;50.420;18.854;2022-10-17T02:26:52;34;32;20
55043;PMS5003;54902;50.420;18.854;2022-10-17T02:29:37;46;43;28
55043;PMS5003;54902;50.420;18.854;2022-10-17T02:29:38;46;43;28
55043;PMS5003;54902;50.420;18.854;2022-10-17T02:30:24;34;32;21
55043;PMS5003;54902;50.420;18.854;2022-10-17T02:31:55;34;32;21
55043;PMS5003;54902;50.420;18.854;2022-10-17T02:32:34;34;32;21
55043;PMS5003;54902;50.420;18.854;2022-10-17T02:33:14;34;32;21
55043;PMS5003;54902;50.420;18.854;2022-10-17T02:33:50;34;32;21
55043;PMS5003;54902;50.420;18.854;2022-10-17T02:34:29;41;39;27
55043;PMS5003;54902;50.420;18.854;2022-10-17T02:35:03;20;20;15
55043;PMS5003;54902;50.420;18.854;2022-10-17T02:35:40;20;20;15
55043;PMS5003;54902;50.420;18.854;2022-10-17T02:36:18;20;20;15
55043;PMS5003;54902;50.420;18.854;2022-10-17T02:36:54;20;20;15
55043;PMS5003;54902;50.420;18.854;2022-10-17T02:37:30;20;20;15
55043;PMS5003;54902;50.420;18.854;2022-10-17T02:38:02;20;20;15
55043;PMS5003;54902;50.420;18.854;2022-10-17T02:38:36;20;20;15
55043;PMS5003;54902;50.420;18.854;2022-10-17T02:39:09;20;20;15
55043;PMS5003;54902;50.420;18.854;2022-10-17T02:39:42;20;20;15
55043;PMS5003;54902;50.420;18.854;2022-10-17T02:40:14;30;30;21
55043;PMS5003;54902;50.420;18.854;2022-10-17T02:40:48;30;30;21
55043;PMS5003;54902;50.420;18.854;2022-10-17T02:41:22;30;30;21
55043;PMS5003;54902;50.420;18.854;2022-10-17T02:41:55;30;30;21
55043;PMS5003;54902;50.420;18.854;2022-10-17T02:42:28;30;30;21
55043;PMS5003;54902;50.420;18.854;2022-10-17T02:43:01;30;30;21
55043;PMS5003;54902;50.420;18.854;2022-10-17T02:43:33;30;30;21
55043;PMS5003;54902;50.420;18.854;2022-10-17T02:44:06;30;30;21
55043;PMS5003;54902;50.420;18.854;2022-10-17T02:44:39;30;30;21
55043;PMS5003;54902;50.420;18.854;2022-10-17T02:45:13;30;30;21
55043;PMS5003;54902;50.420;18.854;2022-10-17T02:45:45;30;30;21
55043;PMS5003;54902;50.420;18.854;2022-10-17T02:46:17;30;30;21
55043;PMS5003;54902;50.420;18.854;2022-10-17T02:46:52;30;30;21
55043;PMS5003;54902;50.420;18.854;2022-10-17T02:49:00;30;30;21
55043;PMS5003;54902;50.420;18.854;2022-10-17T02:49:38;26;26;18
55043;PMS5003;54902;50.420;18.854;2022-10-17T02:50:13;26;26;18
55043;PMS5003;54902;50.420;18.854;2022-10-17T02:50:53;26;26;18
55043;PMS5003;54902;50.420;18.854;2022-10-17T02:52:29;35;34;24
55043;PMS5003;54902;50.420;18.854;2022-10-17T02:52:55;35;34;24
55043;PMS5003;54902;50.420;18.854;2022-10-17T02:53:37;35;34;24
55043;PMS5003;54902;50.420;18.854;2022-10-17T02:54:16;35;34;24
55043;PMS5003;54902;50.420;18.854;2022-10-17T02:54:57;35;34;24
55043;PMS5003;54902;50.420;18.854;2022-10-17T02:55:34;35;34;24
55043;PMS5003;54902;50.420;18.854;2022-10-17T02:56:14;35;34;24
55043;PMS5003;54902;50.420;18.854;2022-10-17T02:56:49;35;34;24
55043;PMS5003;54902;50.420;18.854;2022-10-17T02:57:30;35;34;24
55043;PMS5003;54902;50.420;18.854;2022-10-17T02:58:17;35;34;24
55043;PMS5003;54902;50.420;18.854;2022-10-17T02:58:54;41;39;28
55043;PMS5003;54902;50.420;18.854;2022-10-17T02:59:28;41;39;28
55043;PMS5003;54902;50.420;18.854;2022-10-17T03:00:03;41;39;28
55043;PMS5003;54902;50.420;18.854;2022-10-17T03:00:37;41;39;28
55043;PMS5003;54902;50.420;18.854;2022-10-17T03:01:10;41;39;28
55043;PMS5003;54902;50.420;18.854;2022-10-17T03:01:42;41;39;28
55043;PMS5003;54902;50.420;18.854;2022-10-17T03:02:13;41;39;28
55043;PMS5003;54902;50.420;18.854;2022-10-17T03:02:46;41;39;28
55043;PMS5003;54902;50.420;18.854;2022-10-17T03:03:23;41;39;28
55043;PMS5003;54902;50.420;18.854;2022-10-17T03:04:42;16;15;11
55043;PMS5003;54902;50.420;18.854;2022-10-17T03:05:16;16;15;11
55043;PMS5003;54902;50.420;18.854;2022-10-17T03:05:51;16;15;11
55043;PMS5003;54902;50.420;18.854;2022-10-17T03:06:23;16;15;11
55043;PMS5003;54902;50.420;18.854;2022-10-17T03:06:54;16;15;11
55043;PMS5003;54902;50.420;18.854;2022-10-17T03:07:25;16;15;11
55043;PMS5003;54902;50.420;18.854;2022-10-17T03:07:56;16;15;11
55043;PMS5003;54902;50.420;18.854;2022-10-17T03:08:27;16;15;11
55043;PMS5003;54902;50.420;18.854;2022-10-17T03:08:58;16;15;11
55043;PMS5003;54902;50.420;18.854;2022-10-17T03:09:29;16;15;11
55043;PMS5003;54902;50.420;18.854;2022-10-17T03:10:00;22;22;15
55043;PMS5003;54902;50.420;18.854;2022-10-17T03:10:31;22;22;15
55043;PMS5003;54902;50.420;18.854;2022-10-17T03:11:02;22;22;15
55043;PMS5003;54902;50.420;18.854;2022-10-17T03:11:33;22;22;15
55043;PMS5003;54902;50.420;18.854;2022-10-17T03:12:04;22;22;15
55043;PMS5003;54902;50.420;18.854;2022-10-17T03:12:35;22;22;15
55043;PMS5003;54902;50.420;18.854;2022-10-17T03:13:06;22;22;15
55043;PMS5003;54902;50.420;18.854;2022-10-17T03:13:37;22;22;15
55043;PMS5003;54902;50.420;18.854;2022-10-17T03:14:08;22;22;15
55043;PMS5003;54902;50.420;18.854;2022-10-17T03:14:39;22;22;15
55043;PMS5003;54902;50.420;18.854;2022-10-17T03:15:10;22;22;15
55043;PMS5003;54902;50.420;18.854;2022-10-17T03:15:42;22;22;15
55043;PMS5003;54902;50.420;18.854;2022-10-17T03:16:13;17;17;12
55043;PMS5003;54902;50.420;18.854;2022-10-17T03:16:44;17;17;12
55043;PMS5003;54902;50.420;18.854;2022-10-17T03:17:15;17;17;12
55043;PMS5003;54902;50.420;18.854;2022-10-17T03:17:46;17;17;12
55043;PMS5003;54902;50.420;18.854;2022-10-17T03:18:17;17;17;12
55043;PMS5003;54902;50.420;18.854;2022-10-17T03:18:47;17;17;12
55043;PMS5003;54902;50.420;18.854;2022-10-17T03:19:18;17;17;12
55043;PMS5003;54902;50.420;18.854;2022-10-17T03:19:49;17;17;12
55043;PMS5003;54902;50.420;18.854;2022-10-17T03:20:20;30;29;18
55043;PMS5003;54902;50.420;18.854;2022-10-17T03:20:51;30;29;18
55043;PMS5003;54902;50.420;18.854;2022-10-17T03:21:22;30;29;18
55043;PMS5003;54902;50.420;18.854;2022-10-17T03:21:53;30;29;18
55043;PMS5003;54902;50.420;18.854;2022-10-17T03:22:24;30;29;18
55043;PMS5003;54902;50.420;18.854;2022-10-17T03:22:55;30;29;18
55043;PMS5003;54902;50.420;18.854;2022-10-17T03:23:26;30;29;18
55043;PMS5003;54902;50.420;18.854;2022-10-17T03:23:57;27;26;17
55043;PMS5003;54902;50.420;18.854;2022-10-17T03:24:28;27;26;17
55043;PMS5003;54902;50.420;18.854;2022-10-17T03:24:59;27;26;17
55043;PMS5003;54902;50.420;18.854;2022-10-17T03:25:30;30;30;21
55043;PMS5003;54902;50.420;18.854;2022-10-17T03:26:38;30;30;21
55043;PMS5003;54902;50.420;18.854;2022-10-17T03:27:08;30;30;21
55043;PMS5003;54902;50.420;18.854;2022-10-17T03:27:40;30;30;21
55043;PMS5003;54902;50.420;18.854;2022-10-17T03:28:10;30;30;21
55043;PMS5003;54902;50.420;18.854;2022-10-17T03:28:41;30;30;21
55043;PMS5003;54902;50.420;18.854;2022-10-17T03:29:12;30;30;21
55043;PMS5003;54902;50.420;18.854;2022-10-17T03:29:43;31;31;22
55043;PMS5003;54902;50.420;18.854;2022-10-17T03:30:14;31;31;22
55043;PMS5003;54902;50.420;18.854;2022-10-17T03:30:45;21;21;14
55043;PMS5003;54902;50.420;18.854;2022-10-17T03:31:17;21;21;14
55043;PMS5003;54902;50.420;18.854;2022-10-17T03:31:48;21;21;14
55043;PMS5003;54902;50.420;18.854;2022-10-17T03:32:19;21;21;14
55043;PMS5003;54902;50.420;18.854;2022-10-17T03:32:49;21;21;14
55043;PMS5003;54902;50.420;18.854;2022-10-17T03:33:20;21;21;14
55043;PMS5003;54902;50.420;18.854;2022-10-17T03:33:51;21;21;14
55043;PMS5003;54902;50.420;18.854;2022-10-17T03:34:22;21;21;14
55043;PMS5003;54902;50.420;18.854;2022-10-17T03:34:53;21;21;14
55043;PMS5003;54902;50.420;18.854;2022-10-17T03:35:24;21;21;14
55043;PMS5003;54902;50.420;18.854;2022-10-17T03:35:56;31;31;21
55043;PMS5003;54902;50.420;18.854;2022-10-17T03:36:27;31;31;21
55043;PMS5003;54902;50.420;18.854;2022-10-17T03:36:58;31;31;21
55043;PMS5003;54902;50.420;18.854;2022-10-17T03:37:29;31;31;21
55043;PMS5003;54902;50.420;18.854;2022-10-17T03:37:59;31;31;21
55043;PMS5003;54902;50.420;18.854;2022-10-17T03:38:30;31;31;21
55043;PMS5003;54902;50.420;18.854;2022-10-17T03:39:01;31;31;21
55043;PMS5003;54902;50.420;18.854;2022-10-17T03:39:32;27;27;18
55043;PMS5003;54902;50.420;18.854;2022-10-17T03:40:03;27;27;18
55043;PMS5003;54902;50.420;18.854;2022-10-17T03:40:35;27;27;18
55043;PMS5003;54902;50.420;18.854;2022-10-17T03:41:06;28;26;18
55043;PMS5003;54902;50.420;18.854;2022-10-17T03:41:37;28;26;18
55043;PMS5003;54902;50.420;18.854;2022-10-17T03:42:09;28;26;18
55043;PMS5003;54902;50.420;18.854;2022-10-17T03:42:39;28;26;18
55043;PMS5003;54902;50.420;18.854;2022-10-17T03:43:10;28;26;18
55043;PMS5003;54902;50.420;18.854;2022-10-17T03:43:41;28;26;18
55043;PMS5003;54902;50.420;18.854;2022-10-17T03:44:12;28;26;18
55043;PMS5003;54902;50.420;18.854;2022-10-17T03:44:43;28;26;18
55043;PMS5003;54902;50.420;18.854;2022-10-17T03:45:14;28;26;18
55043;PMS5003;54902;50.420;18.854;2022-10-17T03:45:45;28;26;18
55043;PMS5003;54902;50.420;18.854;2022-10-17T03:46:16;36;34;24
55043;PMS5003;54902;50.420;18.854;2022-10-17T03:46:47;36;34;24
55043;PMS5003;54902;50.420;18.854;2022-10-17T03:47:18;36;34;24
55043;PMS5003;54902;50.420;18.854;2022-10-17T03:47:49;36;34;24
55043;PMS5003;54902;50.420;18.854;2022-10-17T03:48:20;36;34;24
55043;PMS5003;54902;50.420;18.854;2022-10-17T03:48:50;36;34;24
55043;PMS5003;54902;50.420;18.854;2022-10-17T03:49:22;36;34;24
55043;PMS5003;54902;50.420;18.854;2022-10-17T03:49:52;36;34;24
55043;PMS5003;54902;50.420;18.854;2022-10-17T03:50:24;36;34;24
55043;PMS5003;54902;50.420;18.854;2022-10-17T03:50:58;36;34;24
55043;PMS5003;54902;50.420;18.854;2022-10-17T03:51:31;36;34;24
55043;PMS5003;54902;50.420;18.854;2022-10-17T03:52:04;36;34;24
55043;PMS5003;54902;50.420;18.854;2022-10-17T03:52:35;36;34;24
55043;PMS5003;54902;50.420;18.854;2022-10-17T03:53:06;36;34;24
55043;PMS5003;54902;50.420;18.854;2022-10-17T03:53:37;20;19;13
55043;PMS5003;54902;50.420;18.854;2022-10-17T03:54:08;20;19;13
55043;PMS5003;54902;50.420;18.854;2022-10-17T03:54:39;20;19;13
55043;PMS5003;54902;50.420;18.854;2022-10-17T03:55:10;20;19;13
55043;PMS5003;54902;50.420;18.854;2022-10-17T03:55:41;20;19;13
55043;PMS5003;54902;50.420;18.854;2022-10-17T03:56:13;20;19;13
55043;PMS5003;54902;50.420;18.854;2022-10-17T03:56:46;21;21;13
55043;PMS5003;54902;50.420;18.854;2022-10-17T03:57:17;21;21;13
55043;PMS5003;54902;50.420;18.854;2022-10-17T03:57:48;21;21;13
55043;PMS5003;54902;50.420;18.854;2022-10-17T03:58:19;21;21;13
55043;PMS5003;54902;50.420;18.854;2022-10-17T03:58:50;21;21;13
55043;PMS5003;54902;50.420;18.854;2022-10-17T03:59:21;21;21;13
55043;PMS5003;54902;50.420;18.854;2022-10-17T03:59:52;21;21;13
55043;PMS5003;54902;50.420;18.854;2022-10-17T04:00:23;21;21;13
55043;PMS5003;54902;50.420;18.854;2022-10-17T04:00:54;21;21;13
55043;PMS5003;54902;50.420;18.854;2022-10-17T04:01:25;21;21;13
55043;PMS5003;54902;50.420;18.854;2022-10-17T04:01:56;24;24;15
55043;PMS5003;54902;50.420;18.854;2022-10-17T04:02:27;24;24;15
55043;PMS5003;54902;50.420;18.854;2022-10-17T04:02:58;24;24;15
55043;PMS5003;54902;50.420;18.854;2022-10-17T04:03:29;24;24;15
55043;PMS5003;54902;50.420;18.854;2022-10-17T04:04:00;24;24;15
55043;PMS5003;54902;50.420;18.854;2022-10-17T04:04:31;24;24;15
55043;PMS5003;54902;50.420;18.854;2022-10-17T04:05:01;24;24;15
55043;PMS5003;54902;50.420;18.854;2022-10-17T04:05:33;24;24;15
55043;PMS5003;54902;50.420;18.854;2022-10-17T04:06:04;24;24;15
55043;PMS5003;54902;50.420;18.854;2022-10-17T04:06:36;24;24;15
55043;PMS5003;54902;50.420;18.854;2022-10-17T04:07:07;24;24;15
55043;PMS5003;54902;50.420;18.854;2022-10-17T04:07:38;24;24;15
55043;PMS5003;54902;50.420;18.854;2022-10-17T04:08:09;24;24;15
55043;PMS5003;54902;50.420;18.854;2022-10-17T04:08:40;15;15;9
55043;PMS5003;54902;50.420;18.854;2022-10-17T04:09:12;15;15;9
55043;PMS5003;54902;50.420;18.854;2022-10-17T04:09:43;15;15;9
55043;PMS5003;54902;50.420;18.854;2022-10-17T04:10:14;15;15;9
55043;PMS5003;54902;50.420;18.854;2022-10-17T04:10:45;15;15;9